createdAt,value
2018-05-18T00:01:47.702Z,8.70
2018-05-18T00:04:13.918Z,8.70
2018-05-18T00:06:40.130Z,8.70
2018-05-18T00:09:07.737Z,8.60
2018-05-18T00:11:33.896Z,8.60
2018-05-18T00:14:00.867Z,8.60
2018-05-18T00:16:27.063Z,8.60
2018-05-18T00:18:53.263Z,8.60
2018-05-18T00:21:19.511Z,8.60
2018-05-18T00:23:45.707Z,8.60
2018-05-18T00:26:11.927Z,8.70
2018-05-18T00:28:38.931Z,8.70
2018-05-18T00:31:05.171Z,8.70
2018-05-18T00:33:32.099Z,8.50
2018-05-18T00:35:58.293Z,8.50
2018-05-18T00:38:24.535Z,8.50
2018-05-18T00:40:50.722Z,8.40
2018-05-18T00:43:16.944Z,8.30
2018-05-18T00:45:43.170Z,8.30
2018-05-18T00:48:10.111Z,8.20
2018-05-18T00:50:37.120Z,8.20
2018-05-18T00:53:03.319Z,8.20
2018-05-18T00:55:39.959Z,8.20
2018-05-18T00:58:06.936Z,8.30
2018-05-18T01:00:33.132Z,8.30
2018-05-18T01:03:00.098Z,8.40
2018-05-18T01:05:27.088Z,8.40
2018-05-18T01:07:53.933Z,8.50
2018-05-18T01:10:21.597Z,8.70
2018-05-18T01:12:48.609Z,8.80
2018-05-18T01:15:14.832Z,8.70
2018-05-18T01:17:41.060Z,8.80
2018-05-18T01:20:07.305Z,8.90
2018-05-18T01:22:33.564Z,8.90
2018-05-18T01:24:59.758Z,9.00
2018-05-18T01:27:25.947Z,9.00
2018-05-18T01:29:52.911Z,9.10
2018-05-18T01:32:19.874Z,9.20
2018-05-18T01:34:46.115Z,9.20
2018-05-18T01:37:19.255Z,9.30
2018-05-18T01:39:46.214Z,9.40
2018-05-18T01:42:13.147Z,9.50
2018-05-18T01:44:39.363Z,9.50
2018-05-18T01:47:05.555Z,9.50
2018-05-18T01:49:31.778Z,9.60
2018-05-18T01:51:57.974Z,9.60
2018-05-18T01:54:24.935Z,9.70
2018-05-18T01:56:51.136Z,9.70
2018-05-18T01:59:17.358Z,9.70
2018-05-18T02:01:43.558Z,9.70
2018-05-18T02:04:09.929Z,9.70
2018-05-18T02:06:36.864Z,9.70
2018-05-18T02:09:03.119Z,9.70
2018-05-18T02:11:30.079Z,9.80
2018-05-18T02:13:56.287Z,9.80
2018-05-18T02:16:23.251Z,9.80
2018-05-18T02:18:49.451Z,9.80
2018-05-18T02:21:15.695Z,9.90
2018-05-18T02:23:42.635Z,9.90
2018-05-18T02:26:09.596Z,9.90
2018-05-18T02:28:35.790Z,9.90
2018-05-18T02:31:01.984Z,9.90
2018-05-18T02:33:28.207Z,9.90
2018-05-18T02:35:54.394Z,9.90
2018-05-18T02:38:21.367Z,9.90
2018-05-18T02:40:47.567Z,9.90
2018-05-18T02:43:14.576Z,10.00
2018-05-18T02:45:40.755Z,9.90
2018-05-18T02:48:07.754Z,10.00
2018-05-18T02:50:33.947Z,10.00
2018-05-18T02:53:00.166Z,9.90
2018-05-18T02:55:26.372Z,10.00
2018-05-18T02:57:53.339Z,9.90
2018-05-18T03:00:19.534Z,9.90
2018-05-18T03:02:45.774Z,9.80
2018-05-18T03:05:11.995Z,9.80
2018-05-18T03:07:38.219Z,9.80
2018-05-18T03:10:04.421Z,9.80
2018-05-18T03:12:30.649Z,9.80
2018-05-18T03:14:56.838Z,9.80
2018-05-18T03:17:23.830Z,9.90
2018-05-18T03:19:50.027Z,9.90
2018-05-18T03:22:16.242Z,9.90
2018-05-18T03:24:43.182Z,10.00
2018-05-18T03:27:10.596Z,10.00
2018-05-18T03:29:36.797Z,10.00
2018-05-18T03:32:02.999Z,10.00
2018-05-18T03:34:29.970Z,10.10
2018-05-18T03:36:56.171Z,10.00
2018-05-18T03:39:23.135Z,10.10
2018-05-18T03:41:49.334Z,10.10
2018-05-18T03:44:16.345Z,10.10
2018-05-18T03:46:42.552Z,10.10
2018-05-18T03:49:09.217Z,10.20
2018-05-18T03:51:35.413Z,10.20
2018-05-18T03:54:01.607Z,10.20
2018-05-18T03:56:28.562Z,10.20
2018-05-18T03:58:55.503Z,10.20
2018-05-18T04:01:34.738Z,10.20
2018-05-18T04:07:15.831Z,10.30
2018-05-18T04:09:42.766Z,10.40
2018-05-18T04:12:08.978Z,10.30
2018-05-18T04:14:35.169Z,10.40
2018-05-18T04:17:01.795Z,10.30
2018-05-18T04:19:28.220Z,10.30
2018-05-18T04:21:55.155Z,10.30
2018-05-18T04:24:22.123Z,10.30
2018-05-18T04:26:48.324Z,10.30
2018-05-18T04:29:15.282Z,10.30
2018-05-18T04:31:42.223Z,10.40
2018-05-18T04:34:09.542Z,10.40
2018-05-18T04:36:35.746Z,10.40
2018-05-18T04:39:02.032Z,10.50
2018-05-18T04:41:28.966Z,10.50
2018-05-18T04:43:55.196Z,10.50
2018-05-18T04:46:21.395Z,10.70
2018-05-18T04:48:47.595Z,10.70
2018-05-18T04:51:13.959Z,10.70
2018-05-18T04:53:40.158Z,10.70
2018-05-18T04:56:06.380Z,10.50
2018-05-18T04:58:32.579Z,10.50
2018-05-18T05:00:59.542Z,10.40
2018-05-18T05:03:26.473Z,10.30
2018-05-18T05:05:53.592Z,10.30
2018-05-18T05:08:19.786Z,10.30
2018-05-18T05:10:45.978Z,10.30
2018-05-18T05:13:12.942Z,10.50
2018-05-18T05:15:40.280Z,10.60
2018-05-18T05:18:07.255Z,10.70
2018-05-18T05:20:33.464Z,10.60
2018-05-18T05:23:00.438Z,10.80
2018-05-18T05:25:26.631Z,10.70
2018-05-18T05:27:53.599Z,10.70
2018-05-18T05:30:19.803Z,10.70
2018-05-18T05:32:46.028Z,10.70
2018-05-18T05:35:12.291Z,10.80
2018-05-18T05:37:38.507Z,10.90
2018-05-18T05:40:05.443Z,11.10
2018-05-18T05:42:32.407Z,11.20
2018-05-18T05:44:58.598Z,11.20
2018-05-18T05:47:24.828Z,11.30
2018-05-18T05:49:51.787Z,11.50
2018-05-18T05:52:18.746Z,11.40
2018-05-18T05:54:45.687Z,11.40
2018-05-18T05:57:12.646Z,11.40
2018-05-18T05:59:39.575Z,11.50
2018-05-18T06:02:06.590Z,11.40
2018-05-18T06:04:32.826Z,11.30
2018-05-18T06:06:59.047Z,11.40
2018-05-18T06:09:25.243Z,11.40
2018-05-18T06:11:51.463Z,11.30
2018-05-18T06:14:17.936Z,11.30
2018-05-18T06:16:44.164Z,11.40
2018-05-18T06:19:10.406Z,11.40
2018-05-18T06:21:36.632Z,11.40
2018-05-18T06:24:02.830Z,11.50
2018-05-18T06:26:29.059Z,11.50
2018-05-18T06:28:55.255Z,11.70
2018-05-18T06:31:22.288Z,11.60
2018-05-18T06:33:49.227Z,11.60
2018-05-18T06:36:15.487Z,11.50
2018-05-18T06:38:41.695Z,11.40
2018-05-18T06:41:08.026Z,11.30
2018-05-18T06:43:34.507Z,11.30
2018-05-18T06:46:00.725Z,11.20
2018-05-18T06:48:26.950Z,11.20
2018-05-18T06:50:53.179Z,11.20
2018-05-18T06:53:19.370Z,11.20
2018-05-18T06:55:46.085Z,11.20
2018-05-18T06:58:12.287Z,11.20
2018-05-18T07:00:38.502Z,11.30
2018-05-18T07:03:04.709Z,11.40
2018-05-18T07:05:31.750Z,11.60
2018-05-18T07:07:58.694Z,11.70
2018-05-18T07:10:25.643Z,11.90
2018-05-18T07:12:51.886Z,11.90
2018-05-18T07:15:18.822Z,12.10
2018-05-18T07:17:45.778Z,12.20
2018-05-18T07:20:12.797Z,12.20
2018-05-18T07:22:40.612Z,12.20
2018-05-18T07:25:06.854Z,12.20
2018-05-18T07:27:34.513Z,12.30
2018-05-18T07:30:00.736Z,12.30
2018-05-18T07:34:58.119Z,12.30
2018-05-18T07:37:24.358Z,12.40
2018-05-18T07:39:50.555Z,12.40
2018-05-18T07:42:16.755Z,12.60
2018-05-18T07:44:43.727Z,12.60
2018-05-18T07:47:09.927Z,12.50
2018-05-18T07:49:36.168Z,12.60
2018-05-18T07:52:03.102Z,12.70
2018-05-18T07:54:30.071Z,12.80
2018-05-18T07:56:57.006Z,12.90
2018-05-18T07:59:24.073Z,13.00
2018-05-18T08:01:50.214Z,13.00
2018-05-18T08:04:16.727Z,13.10
2018-05-18T08:06:43.681Z,13.40
2018-05-18T08:09:09.895Z,13.40
2018-05-18T08:11:36.827Z,13.70
2018-05-18T08:14:03.787Z,13.70
2018-05-18T08:16:30.730Z,13.80
2018-05-18T08:18:58.052Z,13.80
2018-05-18T08:21:24.251Z,13.80
2018-05-18T08:23:50.448Z,13.90
2018-05-18T08:26:17.421Z,14.00
2018-05-18T08:28:55.891Z,14.00
2018-05-18T08:31:22.115Z,14.10
2018-05-18T08:33:49.188Z,14.10
2018-05-18T08:36:16.188Z,14.40
2018-05-18T08:38:42.383Z,14.40
2018-05-18T08:41:08.647Z,14.80
2018-05-18T08:43:34.902Z,14.80
2018-05-18T08:46:01.222Z,14.80
2018-05-18T08:48:27.410Z,14.90
2018-05-18T08:50:53.623Z,15.00
2018-05-18T08:53:19.815Z,15.10
2018-05-18T08:55:46.132Z,14.80
2018-05-18T08:58:12.364Z,14.80
2018-05-18T09:00:38.603Z,14.90
2018-05-18T09:03:05.524Z,14.60
2018-05-18T09:05:31.772Z,14.60
2018-05-18T09:07:57.970Z,14.70
2018-05-18T09:10:24.266Z,14.60
2018-05-18T09:12:50.467Z,14.60
2018-05-18T09:15:17.428Z,14.50
2018-05-18T09:17:44.362Z,14.50
2018-05-18T09:20:10.615Z,14.40
2018-05-18T09:22:37.554Z,14.20
2018-05-18T09:25:04.547Z,14.00
2018-05-18T09:27:30.743Z,14.00
2018-05-18T09:29:56.958Z,13.70
2018-05-18T09:32:23.890Z,13.20
2018-05-18T09:34:50.862Z,13.10
2018-05-18T09:37:17.062Z,13.10
2018-05-18T09:39:44.062Z,13.30
2018-05-18T09:42:11.291Z,13.50
2018-05-18T09:44:37.535Z,13.40
2018-05-18T09:47:03.748Z,13.70
2018-05-18T09:49:29.944Z,14.00
2018-05-18T09:51:56.159Z,14.20
2018-05-18T09:54:22.463Z,14.30
2018-05-18T09:56:48.597Z,14.30
2018-05-18T09:59:14.795Z,14.30
2018-05-18T10:01:41.039Z,14.00
2018-05-18T10:04:07.235Z,13.90
2018-05-18T10:06:34.223Z,14.10
2018-05-18T10:09:00.415Z,14.10
2018-05-18T10:11:27.385Z,14.70
2018-05-18T10:13:53.579Z,14.70
2018-05-18T10:16:20.539Z,15.20
2018-05-18T10:18:47.471Z,15.30
2018-05-18T10:21:14.441Z,15.10
2018-05-18T10:23:40.635Z,15.00
2018-05-18T10:26:07.666Z,14.90
2018-05-18T10:28:33.863Z,14.90
2018-05-18T10:31:00.092Z,15.10
2018-05-18T10:33:26.287Z,15.20
2018-05-18T10:35:53.246Z,15.50
2018-05-18T10:38:19.434Z,15.50
2018-05-18T10:40:45.651Z,15.60
2018-05-18T10:43:11.842Z,15.60
2018-05-18T10:45:38.051Z,15.60
2018-05-18T10:48:04.989Z,15.60
2018-05-18T10:50:31.988Z,15.50
2018-05-18T10:52:58.184Z,15.50
2018-05-18T10:55:24.393Z,15.30
2018-05-18T10:57:51.355Z,14.90
2018-05-18T11:00:17.551Z,14.90
2018-05-18T11:02:43.762Z,14.90
2018-05-18T11:05:09.979Z,15.20
2018-05-18T11:07:36.220Z,15.60
2018-05-18T11:10:02.435Z,15.90
2018-05-18T11:12:28.655Z,16.10
2018-05-18T11:14:54.851Z,16.20
2018-05-18T11:17:21.077Z,16.00
2018-05-18T11:19:48.015Z,16.50
2018-05-18T11:22:14.977Z,16.60
2018-05-18T11:24:41.167Z,16.60
2018-05-18T11:27:07.387Z,16.70
2018-05-18T11:29:33.585Z,16.80
2018-05-18T11:32:00.559Z,16.90
2018-05-18T11:34:26.891Z,16.90
2018-05-18T11:36:53.179Z,17.00
2018-05-18T11:39:19.375Z,17.10
2018-05-18T11:41:46.331Z,17.30
2018-05-18T11:44:13.264Z,17.50
2018-05-18T11:46:39.490Z,17.50
2018-05-18T11:49:05.678Z,17.60
2018-05-18T11:51:31.875Z,17.90
2018-05-18T11:53:58.090Z,18.10
2018-05-18T11:56:25.023Z,17.90
2018-05-18T11:58:51.254Z,17.90
2018-05-18T12:01:17.447Z,18.40
2018-05-18T12:03:43.654Z,18.40
2018-05-18T12:06:09.902Z,18.60
2018-05-18T12:08:36.110Z,18.90
2018-05-18T12:11:04.214Z,19.00
2018-05-18T12:13:31.231Z,19.00
2018-05-18T12:16:00.299Z,18.90
2018-05-18T12:18:27.260Z,18.70
2018-05-18T12:20:54.194Z,18.40
2018-05-18T12:23:21.219Z,18.10
2018-05-18T12:25:47.418Z,18.10
2018-05-18T12:28:13.658Z,18.00
2018-05-18T12:30:39.951Z,17.80
2018-05-18T12:33:06.171Z,17.40
2018-05-18T12:35:39.416Z,17.10
2018-05-18T12:38:05.755Z,17.00
2018-05-18T12:40:31.954Z,17.10
2018-05-18T12:42:58.174Z,17.10
2018-05-18T12:45:24.363Z,17.20
2018-05-18T12:47:51.418Z,16.90
2018-05-18T12:50:18.415Z,17.00
2018-05-18T12:52:44.652Z,17.00
2018-05-18T12:55:10.846Z,17.30
2018-05-18T12:57:37.055Z,17.50
2018-05-18T13:00:04.011Z,18.00
2018-05-18T13:02:30.204Z,17.90
2018-05-18T13:04:56.423Z,17.80
2018-05-18T13:07:22.619Z,17.70
2018-05-18T13:09:48.866Z,17.50
2018-05-18T13:12:15.061Z,17.50
2018-05-18T13:14:41.270Z,17.60
2018-05-18T13:17:08.204Z,17.70
2018-05-18T13:19:35.163Z,17.90
2018-05-18T13:22:02.099Z,18.00
2018-05-18T13:24:28.346Z,17.90
2018-05-18T13:26:54.544Z,17.80
2018-05-18T13:29:20.764Z,17.60
2018-05-18T13:31:48.494Z,17.00
2018-05-18T13:34:14.702Z,16.90
2018-05-18T13:36:40.898Z,17.00
2018-05-18T13:39:07.116Z,17.00
2018-05-18T13:41:34.794Z,17.00
2018-05-18T13:44:01.067Z,17.00
2018-05-18T13:46:27.254Z,17.00
2018-05-18T13:48:54.219Z,17.10
2018-05-18T13:51:21.163Z,17.30
2018-05-18T13:53:48.167Z,17.40
2018-05-18T13:56:14.675Z,17.40
2018-05-18T13:58:40.895Z,17.50
2018-05-18T14:01:07.108Z,17.60
2018-05-18T14:03:34.039Z,17.50
2018-05-18T14:06:00.999Z,17.40
2018-05-18T14:08:27.199Z,17.40
2018-05-18T14:10:53.430Z,17.10
2018-05-18T14:13:19.631Z,17.00
2018-05-18T14:15:45.906Z,16.90
2018-05-18T14:18:12.907Z,16.60
2018-05-18T14:20:39.130Z,16.60
2018-05-18T14:23:05.350Z,16.80
2018-05-18T14:25:31.603Z,16.90
2018-05-18T14:27:57.799Z,16.90
2018-05-18T14:30:24.024Z,16.70
2018-05-18T14:32:50.283Z,16.60
2018-05-18T14:35:16.799Z,16.30
2018-05-18T14:37:43.048Z,16.00
2018-05-18T14:40:09.235Z,16.00
2018-05-18T14:42:35.460Z,16.10
2018-05-18T14:45:01.792Z,16.40
2018-05-18T14:47:27.987Z,16.20
2018-05-18T14:49:54.223Z,16.00
2018-05-18T14:52:20.607Z,16.00
2018-05-18T14:54:46.900Z,15.70
2018-05-18T14:57:13.943Z,15.80
2018-05-18T14:59:47.075Z,15.80
2018-05-18T15:02:13.294Z,15.90
2018-05-18T15:04:39.496Z,16.00
2018-05-18T15:07:06.523Z,15.60
2018-05-18T15:09:32.727Z,15.60
2018-05-18T15:11:58.946Z,15.50
2018-05-18T15:14:25.138Z,15.30
2018-05-18T15:16:52.100Z,15.20
2018-05-18T15:19:18.295Z,15.20
2018-05-18T15:21:45.266Z,15.20
2018-05-18T15:24:11.474Z,15.20
2018-05-18T15:26:38.438Z,15.20
2018-05-18T15:29:05.379Z,15.20
2018-05-18T15:31:31.948Z,15.10
2018-05-18T15:33:58.139Z,15.10
2018-05-18T15:36:25.099Z,15.00
2018-05-18T15:38:51.291Z,14.90
2018-05-18T15:41:18.990Z,14.70
2018-05-18T15:43:45.179Z,14.70
2018-05-18T15:46:12.219Z,14.70
2018-05-18T15:48:38.483Z,14.70
2018-05-18T15:51:05.466Z,14.70
2018-05-18T15:53:31.663Z,14.70
2018-05-18T15:55:58.604Z,14.70
2018-05-18T15:58:25.588Z,14.70
2018-05-18T16:00:51.783Z,14.60
2018-05-18T16:03:18.743Z,14.50
2018-05-18T16:05:44.990Z,14.40
2018-05-18T16:08:11.205Z,14.40
2018-05-18T16:10:37.395Z,14.20
2018-05-18T16:13:04.356Z,14.10
2018-05-18T16:15:31.288Z,14.00
2018-05-18T16:17:58.252Z,13.90
2018-05-18T16:20:24.523Z,13.90
2018-05-18T16:22:50.745Z,13.90
2018-05-18T16:25:16.934Z,13.90
2018-05-18T16:27:43.175Z,13.80
2018-05-18T16:30:10.186Z,13.80
2018-05-18T16:32:36.404Z,13.80
2018-05-18T16:35:03.365Z,13.80
2018-05-18T16:37:29.683Z,13.70
2018-05-18T16:39:56.061Z,13.70
2018-05-18T16:42:22.456Z,13.60
2018-05-18T16:44:49.342Z,13.60
2018-05-18T16:47:15.551Z,13.50
2018-05-18T16:49:42.526Z,13.30
2018-05-18T16:52:08.756Z,13.30
2018-05-18T16:54:34.943Z,13.20
2018-05-18T16:57:01.883Z,13.00
2018-05-18T16:59:28.127Z,13.00
2018-05-18T17:01:55.062Z,13.00
2018-05-18T17:04:21.283Z,12.90
2018-05-18T17:06:47.499Z,12.90
2018-05-18T17:09:13.715Z,12.90
2018-05-18T17:11:39.902Z,12.80
2018-05-18T17:14:06.146Z,12.70
2018-05-18T17:16:32.331Z,12.60
2018-05-18T17:18:59.295Z,12.50
2018-05-18T17:21:26.227Z,12.50
2018-05-18T17:23:52.451Z,12.50
2018-05-18T17:26:18.672Z,12.50
2018-05-18T17:28:44.867Z,12.40
2018-05-18T17:31:11.179Z,12.40
2018-05-18T17:33:37.371Z,12.30
2018-05-18T17:36:04.315Z,12.30
2018-05-18T17:38:30.526Z,12.30
2018-05-18T17:40:56.718Z,12.30
2018-05-18T17:43:22.942Z,12.30
2018-05-18T17:45:49.150Z,12.30
2018-05-18T17:48:16.114Z,12.10
2018-05-18T17:50:42.302Z,12.10
2018-05-18T17:53:08.527Z,12.00
2018-05-18T17:55:34.723Z,11.90
2018-05-18T17:58:01.202Z,12.00
2018-05-18T18:00:27.558Z,12.00
2018-05-18T18:02:53.787Z,12.00
2018-05-18T18:05:20.254Z,12.00
2018-05-18T18:07:48.773Z,12.00
2018-05-18T18:10:15.490Z,12.00
2018-05-18T18:12:41.731Z,12.00
2018-05-18T18:15:07.930Z,12.00
2018-05-18T18:17:34.466Z,11.90
2018-05-18T18:20:00.716Z,11.90
2018-05-18T18:22:27.030Z,11.80
2018-05-18T18:24:53.171Z,11.70
2018-05-18T18:27:19.414Z,11.60
2018-05-18T18:29:45.611Z,11.70
2018-05-18T18:32:11.838Z,11.60
2018-05-18T18:34:38.063Z,11.60
2018-05-18T18:37:04.266Z,11.50
2018-05-18T18:39:31.550Z,11.50
2018-05-18T18:41:57.787Z,11.50
2018-05-18T18:44:24.007Z,11.50
2018-05-18T18:46:50.548Z,11.50
2018-05-18T18:49:16.776Z,11.50
2018-05-18T18:51:43.039Z,11.30
2018-05-18T18:54:09.263Z,11.40
2018-05-18T18:56:35.464Z,11.30
2018-05-18T18:59:01.712Z,11.40
2018-05-18T19:01:27.915Z,11.30
2018-05-18T19:03:54.142Z,11.40
2018-05-18T19:06:20.331Z,11.40
2018-05-18T19:08:47.363Z,11.40
2018-05-18T19:11:15.039Z,11.40
2018-05-18T19:13:41.279Z,11.40
2018-05-18T19:16:08.214Z,11.40
2018-05-18T19:18:34.435Z,11.40
2018-05-18T19:21:00.647Z,11.40
2018-05-18T19:23:27.159Z,11.40
2018-05-18T19:25:53.354Z,11.40
2018-05-18T19:28:20.307Z,11.40
2018-05-18T19:30:46.535Z,11.40
2018-05-18T19:33:12.744Z,11.40
2018-05-18T19:35:39.713Z,11.30
2018-05-18T19:38:05.928Z,11.30
2018-05-18T19:40:32.896Z,11.30
2018-05-18T19:42:59.090Z,11.30
2018-05-18T19:45:25.323Z,11.20
2018-05-18T19:47:52.285Z,11.20
2018-05-18T19:50:19.244Z,11.10
2018-05-18T19:52:45.438Z,11.10
2018-05-18T19:55:11.659Z,11.10
2018-05-18T19:57:37.858Z,11.00
2018-05-18T20:00:04.083Z,11.00
2018-05-18T20:02:30.283Z,11.00
2018-05-18T20:04:56.519Z,11.10
2018-05-18T20:07:22.777Z,11.10
2018-05-18T20:09:48.998Z,11.10
2018-05-18T20:12:15.265Z,11.00
2018-05-18T20:14:41.452Z,10.90
2018-05-18T20:17:07.651Z,10.90
2018-05-18T20:19:34.614Z,10.80
2018-05-18T20:22:00.816Z,10.70
2018-05-18T20:24:27.087Z,10.80
2018-05-18T20:26:53.563Z,10.70
2018-05-18T20:29:20.535Z,10.50
2018-05-18T20:31:47.507Z,10.30
2018-05-18T20:34:13.743Z,10.30
2018-05-18T20:36:39.968Z,10.30
2018-05-18T20:39:06.164Z,10.20
2018-05-18T20:41:33.136Z,10.10
2018-05-18T20:43:59.367Z,10.10
2018-05-18T20:46:25.604Z,10.10
2018-05-18T20:48:51.834Z,10.10
2018-05-18T20:51:18.119Z,10.10
2018-05-18T20:53:45.063Z,10.00
2018-05-18T20:56:12.035Z,10.00
2018-05-18T20:58:38.271Z,9.90
2018-05-18T21:01:05.222Z,9.90
2018-05-18T21:03:31.468Z,9.90
2018-05-18T21:05:57.695Z,9.90
2018-05-18T21:08:23.898Z,10.00
2018-05-18T21:10:50.115Z,10.10
2018-05-18T21:13:17.058Z,10.30
2018-05-18T21:15:44.095Z,10.40
2018-05-18T21:18:11.036Z,10.30
2018-05-18T21:20:37.342Z,10.30
2018-05-18T21:23:03.543Z,10.30
2018-05-18T21:25:29.738Z,10.30
2018-05-18T21:27:56.699Z,10.30
2018-05-18T21:30:23.001Z,10.30
2018-05-18T21:32:49.163Z,10.40
2018-05-18T21:35:15.363Z,10.40
2018-05-18T21:37:42.336Z,10.50
2018-05-18T21:40:08.526Z,10.40
2018-05-18T21:42:34.746Z,10.50
2018-05-18T21:45:00.947Z,10.40
2018-05-18T21:47:27.192Z,10.50
2018-05-18T21:49:53.412Z,10.50
2018-05-18T21:52:19.630Z,10.50
2018-05-18T21:54:45.827Z,10.50
2018-05-18T21:57:12.783Z,10.30
2018-05-18T21:59:38.980Z,10.30
2018-05-18T22:02:05.195Z,10.30
2018-05-18T22:04:31.468Z,10.20
2018-05-18T22:06:57.699Z,10.20
2018-05-18T22:09:23.934Z,10.20
2018-05-18T22:11:50.152Z,10.30
2018-05-18T22:14:16.357Z,10.40
2018-05-18T22:16:43.331Z,10.30
2018-05-18T22:19:09.567Z,10.30
2018-05-18T22:21:35.791Z,10.30
2018-05-18T22:24:01.988Z,10.40
2018-05-18T22:26:28.190Z,10.40
2018-05-18T22:28:54.416Z,10.50
2018-05-18T22:31:20.639Z,10.50
2018-05-18T22:33:46.883Z,10.60
2018-05-18T22:36:13.071Z,10.60
2018-05-18T22:38:39.287Z,10.70
2018-05-18T22:41:05.478Z,10.70
2018-05-18T22:43:31.703Z,10.70
2018-05-18T22:45:57.907Z,10.70
2018-05-18T22:48:24.159Z,10.70
2018-05-18T22:50:50.360Z,10.80
2018-05-18T22:53:16.597Z,10.70
2018-05-18T22:55:42.795Z,10.80
2018-05-18T22:58:09.019Z,10.70
2018-05-18T23:00:35.211Z,10.70
2018-05-18T23:03:01.435Z,10.70
2018-05-18T23:05:27.635Z,10.70
2018-05-18T23:07:53.854Z,10.70
2018-05-18T23:10:20.051Z,10.70
2018-05-18T23:12:47.024Z,10.60
2018-05-18T23:15:13.235Z,10.60
2018-05-18T23:17:39.427Z,10.60
2018-05-18T23:20:05.654Z,10.60
2018-05-18T23:22:31.879Z,10.60
2018-05-18T23:24:58.099Z,10.50
2018-05-18T23:27:25.074Z,10.40
2018-05-18T23:29:52.047Z,10.40
2018-05-18T23:32:18.247Z,10.40
2018-05-18T23:34:45.274Z,10.40
2018-05-18T23:37:11.479Z,10.40
2018-05-18T23:39:37.775Z,10.40
2018-05-18T23:42:03.996Z,10.40
2018-05-18T23:44:30.965Z,10.40
2018-05-18T23:46:57.178Z,10.40
2018-05-18T23:49:24.140Z,10.40
2018-05-18T23:51:50.328Z,10.40
2018-05-18T23:54:16.546Z,10.40
2018-05-18T23:56:42.738Z,10.40
2018-05-18T23:59:08.955Z,10.50
